Página principal
METAR-TAF:

METAR-TAF

Aeroportos :

Ciudad Real, Espanha

latitude: 38-51-17N, longitude: 3-58-08W, altura: 636 m

Observação actual do tempo

O boletim foi feito há 12 minutos, às 16:30 UTC
Vento 6 kt de norte, variando entre noroeste e nordeste
Temperatura 20°C
Humidade 21%
Pressão 1014 hPa
Visibilidade 10 km ou mais
sem nuvens abaixo de 1500 metros e sem cumulonimbus

METAR: LERL 221630Z 01006KT 320V040 CAVOK 20/M03 Q1014

Hora: 18:42 (16:42 UTC)

Previsão

O boletim foi feito há 2 horas e 42 minutos, às 14:00 UTC
Previsão válida de 22 às 15 UTC a 23 às 15 UTC
Vento 10 kt de nor-nordeste
Visibilidade 10 km ou mais
sem nuvens abaixo de 1500 metros e sem cumulonimbus
Temporariamente
de 22 às 18 UTC a 23 às 02 UTC
Vento 5 kt com direcção variável
Tornando-se
de 23 às 07 UTC a 23 às 09 UTC
Vento 5 kt com direcção variável

TAF: LERL 221400Z 2215/2315 03010KT CAVOK TX20/2315Z TN03/2305Z TEMPO 2218/2302 VRB05KT BECMG 2307/2309 VRB05KT

Observações e previsões do tempo de mais de 4000 aeroportos (mensagens METAR e TAF).

As estações disponíveis são os pontos amarelos e vermelhos sobre o mapa.

Mova o rato sobre o mapa para ver o nome da estação.

Depois clique no ponto para visualizar as observações e previsões meteorológicas.

Para alterar o mapa : clique nos botões verdes com uma cruz preta para aumentar o zoom; no botão verde com uma pitada de zoom; ou nas setas verdes para mapas adjacentes.


METAR-TAF: